Sunflower Cobalt — JI3646 — position and weather

sailwx.info

Track history (hours):
 
Tides and Currents Weather Stations Pressure Air Temp Water Temp Dewpoint Dewpoint Depression Visibility Wind Speed Wind Dir Waves Ship Positions

Sunflower Cobalt

Last reported at 2017-Nov-20 00:23 UTC. Time now 2017-Nov-20 17:08 UTC.
Position N 34°38' E 135°25'.

Length 146 m; draft 5.6 m.

Type: Passenger vessel. MMSI: 431300775.

Date/timePositionNaut miles runAvg speedWind from/ knotsBaromVisibWave heightAir tempDewpointWater temp
2017-Nov-20 00:23N 34°38' E 135°25'0 0.0
2017-Nov-19 23:59N 34°38' E 135°25'0 0.0
2017-Nov-19 23:23N 34°38' E 135°25'0 0.1
2017-Nov-19 22:53N 34°38' E 135°25'0 0.1
2017-Nov-19 22:29N 34°38' E 135°25'0 0.0
2017-Nov-19 21:59N 34°38' E 135°25'0 0.0
2017-Nov-19 21:30N 34°38' E 135°25'2 3.4
2017-Nov-19 21:00N 34°38' E 135°23'918.1
2017-Nov-19 20:30N 34°35' E 135°12'918.1
2017-Nov-19 20:00N 34°37' E 135°01'7 0.2
2017-Nov-18 12:18N 34°35' E 134°53'722.0
2017-Nov-18 12:00N 34°38' E 135°00'1020.3
2017-Nov-18 11:30N 34°36' E 135°12'1019.2
2017-Nov-18 11:01N 34°38' E 135°24'1 1.5
2017-Nov-18 10:25N 34°38' E 135°25'0 0.0
2017-Nov-18 09:55N 34°38' E 135°25'0 0.0
2017-Nov-18 09:19N 34°38' E 135°25'0 0.0
2017-Nov-18 08:43N 34°38' E 135°25'0 0.1
2017-Nov-18 08:07N 34°38' E 135°25'0 0.0
2017-Nov-18 07:49N 34°38' E 135°25'0 0.1
2017-Nov-18 07:25N 34°38' E 135°25'0 0.0
2017-Nov-18 06:55N 34°38' E 135°25'0 0.1
2017-Nov-18 06:25N 34°38' E 135°25'0 0.0
2017-Nov-18 05:55N 34°38' E 135°25'0 0.0
2017-Nov-18 05:25N 34°38' E 135°25'0 0.1
2017-Nov-18 04:55N 34°38' E 135°25'0 0.0
2017-Nov-18 04:25N 34°38' E 135°25'0 0.0
2017-Nov-18 03:55N 34°38' E 135°25'0 0.0
2017-Nov-18 03:25N 34°38' E 135°25'0 0.0
2017-Nov-18 02:50N 34°38' E 135°25'0 0.0
2017-Nov-18 02:25N 34°38' E 135°25'0 0.0
2017-Nov-18 01:55N 34°38' E 135°25'0 0.0
2017-Nov-18 01:19N 34°38' E 135°25'0 0.0
2017-Nov-18 00:55N 34°38' E 135°25'0 0.0
2017-Nov-18 00:26N 34°38' E 135°25'0 0.0
2017-Nov-17 23:37N 34°38' E 135°25'0 0.0
2017-Nov-17 23:13N 34°38' E 135°25'0 0.0
2017-Nov-17 22:56N 34°38' E 135°25'0 0.0
2017-Nov-17 22:26N 34°38' E 135°25'3 8.1
2017-Nov-17 22:00N 34°36' E 135°21'917.2
2017-Nov-17 21:30N 34°35' E 135°11'817.3
2017-Nov-17 21:00N 34°37' E 135°01'10 0.3
2017-Nov-16 11:37N 34°35' E 134°49'221.4
2017-Nov-16 11:30N 34°35' E 134°52'1020.2
2017-Nov-16 11:00N 34°36' E 135°04'1020.3
2017-Nov-16 10:30N 34°37' E 135°17'713.6
2017-Nov-16 10:00N 34°38' E 135°25'0 0.1
2017-Nov-16 09:28N 34°38' E 135°25'0 0.0
2017-Nov-16 08:52N 34°38' E 135°25'0 0.0
2017-Nov-16 08:22N 34°38' E 135°25'0 0.0
2017-Nov-16 07:58N 34°38' E 135°25'0 0.0
2017-Nov-16 07:28N 34°38' E 135°25'0 0.1
2017-Nov-16 06:46N 34°38' E 135°25'0 0.1
2017-Nov-16 06:22N 34°38' E 135°25'0 0.1
2017-Nov-16 05:58N 34°38' E 135°25'0 0.1
2017-Nov-16 05:22N 34°38' E 135°25'0 0.1
2017-Nov-16 04:58N 34°38' E 135°25'0 0.0
2017-Nov-16 04:28N 34°38' E 135°25'0 0.0
2017-Nov-16 03:58N 34°38' E 135°25'0 0.0
2017-Nov-16 03:28N 34°38' E 135°25'0 0.0
2017-Nov-16 02:40N 34°38' E 135°25'0 0.0
2017-Nov-16 02:04N 34°38' E 135°25'0 0.0
2017-Nov-16 01:52N 34°38' E 135°25'0 0.1
2017-Nov-16 01:28N 34°38' E 135°25'0 0.1
2017-Nov-16 00:58N 34°38' E 135°25'0 0.1
2017-Nov-16 00:28N 34°38' E 135°25'0 0.0
2017-Nov-15 23:58N 34°38' E 135°25'0 0.1
2017-Nov-15 23:22N 34°38' E 135°25'0 0.0
2017-Nov-15 22:58N 34°38' E 135°25'0 0.0
2017-Nov-15 22:28N 34°38' E 135°25'0 0.0
2017-Nov-15 21:58N 34°38' E 135°25'0 0.1
2017-Nov-15 21:28N 34°38' E 135°25'3 6.4
2017-Nov-15 21:00N 34°37' E 135°21'917.5
2017-Nov-15 20:30N 34°35' E 135°11'1018.7
2017-Nov-15 19:59N 34°37' E 134°60'7 0.2
2017-Nov-14 11:32N 34°35' E 134°52'120.8
2017-Nov-14 11:29N 34°36' E 134°53'919.5
2017-Nov-14 11:00N 34°36' E 135°04'1020.5
2017-Nov-14 10:30N 34°36' E 135°17'713.4
2017-Nov-14 10:00N 34°38' E 135°25'0 0.0
2017-Nov-14 09:29N 34°38' E 135°25'0 0.0
2017-Nov-14 08:47N 34°38' E 135°25'0 0.0
2017-Nov-14 08:29N 34°38' E 135°25'0 0.0
2017-Nov-14 07:59N 34°38' E 135°25'0 0.0
2017-Nov-14 07:29N 34°38' E 135°25'0 0.0
2017-Nov-14 06:59N 34°38' E 135°25'0 0.0
2017-Nov-14 06:29N 34°38' E 135°25'0 0.0
2017-Nov-14 05:59N 34°38' E 135°25'0 0.0
2017-Nov-14 05:29N 34°38' E 135°25'0 0.0
2017-Nov-14 04:59N 34°38' E 135°25'0 0.0
2017-Nov-14 04:29N 34°38' E 135°25'0 0.0
2017-Nov-14 03:59N 34°38' E 135°25'0 0.0
2017-Nov-14 03:23N 34°38' E 135°25'0 0.0
2017-Nov-14 02:59N 34°38' E 135°25'0 0.0
2017-Nov-14 02:29N 34°38' E 135°25'0 0.0
2017-Nov-14 01:59N 34°38' E 135°25'0 0.0
2017-Nov-14 01:29N 34°38' E 135°25'0 0.0
2017-Nov-14 00:59N 34°38' E 135°25'0 0.0
2017-Nov-14 00:29N 34°38' E 135°25'0 0.0
2017-Nov-13 23:59N 34°38' E 135°25'0 0.0
2017-Nov-13 23:29N 34°38' E 135°25'0 0.0
2017-Nov-13 22:59N 34°38' E 135°25'0 0.0
2017-Nov-13 22:29N 34°38' E 135°25'0 0.0
2017-Nov-13 21:47N 34°38' E 135°25'30 0.9
2017-Nov-12 11:42N 34°34' E 134°49'420.6
2017-Nov-12 11:29N 34°35' E 134°53'918.5
2017-Nov-12 11:01N 34°36' E 135°04'1020.6
2017-Nov-12 10:31N 34°37' E 135°17'713.3
2017-Nov-12 10:00N 34°38' E 135°25'0 0.0
2017-Nov-12 09:26N 34°38' E 135°25'0 0.0
2017-Nov-12 08:56N 34°38' E 135°25'0 0.0
2017-Nov-12 08:26N 34°38' E 135°25'0 0.0
2017-Nov-12 07:50N 34°38' E 135°25'0 0.0
2017-Nov-12 07:26N 34°38' E 135°25'0 0.0
2017-Nov-12 06:56N 34°38' E 135°25'0 0.0
2017-Nov-12 06:20N 34°38' E 135°25'0 0.0
2017-Nov-12 05:50N 34°38' E 135°25'0 0.0
2017-Nov-12 05:26N 34°38' E 135°25'0 0.0
2017-Nov-12 04:56N 34°38' E 135°25'0 0.0
2017-Nov-12 04:20N 34°38' E 135°25'0 0.0
2017-Nov-12 03:50N 34°38' E 135°25'0 0.0
2017-Nov-12 03:20N 34°38' E 135°25'0 0.0
2017-Nov-12 02:56N 34°38' E 135°25'0 0.0
2017-Nov-12 02:26N 34°38' E 135°25'0 0.0
2017-Nov-12 01:56N 34°38' E 135°25'0 0.0
2017-Nov-12 01:26N 34°38' E 135°25'0 0.0
2017-Nov-12 00:56N 34°38' E 135°25'0 0.0
2017-Nov-12 00:14N 34°38' E 135°25'0 0.0
2017-Nov-11 23:56N 34°38' E 135°25'0 0.0
2017-Nov-11 23:26N 34°38' E 135°25'0 0.0
2017-Nov-11 22:44N 34°38' E 135°25'0 0.0
2017-Nov-11 22:27N 34°38' E 135°25'4 9.0
2017-Nov-11 22:00N 34°36' E 135°20'1019.2
2017-Nov-11 21:30N 34°35' E 135°09'918.7
2017-Nov-11 21:00N 34°37' E 134°58'6 0.2
2017-Nov-10 12:33N 34°35' E 134°51'319.4
2017-Nov-10 12:22N 34°36' E 134°54'617.5
2017-Nov-10 12:01N 34°37' E 135°02'918.6
2017-Nov-10 11:31N 34°36' E 135°13'918.0
2017-Nov-10 11:00N 34°38' E 135°24'1 1.4
2017-Nov-10 10:30N 34°38' E 135°25'0 0.0
2017-Nov-10 10:00N 34°38' E 135°25'0 0.0
2017-Nov-10 09:30N 34°38' E 135°25'0 0.0
2017-Nov-10 09:00N 34°38' E 135°25'0 0.0
2017-Nov-10 08:30N 34°38' E 135°25'0 0.0
2017-Nov-10 08:00N 34°38' E 135°25'0 0.0
2017-Nov-10 07:30N 34°38' E 135°25'0 0.0
2017-Nov-10 07:00N 34°38' E 135°25'0 0.0
2017-Nov-10 06:30N 34°38' E 135°25'0 0.0
2017-Nov-10 05:54N 34°38' E 135°25'0 0.0
2017-Nov-10 05:24N 34°38' E 135°25'0 0.0
2017-Nov-10 04:48N 34°38' E 135°25'0 0.0
2017-Nov-10 04:30N 34°38' E 135°25'0 0.0
2017-Nov-10 04:00N 34°38' E 135°25'0 0.0
2017-Nov-10 03:30N 34°38' E 135°25'0 0.0
2017-Nov-10 03:00N 34°38' E 135°25'0 0.0
2017-Nov-10 02:30N 34°38' E 135°25'0 0.0
2017-Nov-10 02:00N 34°38' E 135°25'0 0.0
2017-Nov-10 01:24N 34°38' E 135°25'0 0.0
2017-Nov-10 01:00N 34°38' E 135°25'0 0.0
2017-Nov-10 00:30N 34°38' E 135°25'  
Track history (hours):
 
Tides and Currents Weather Stations Pressure Air Temp Water Temp Dewpoint Dewpoint Depression Visibility Wind Speed Wind Dir Waves Ship Positions

Sunflower Cobalt

Last reported at 2017-Nov-20 00:23 UTC. Time now 2017-Nov-20 17:08 UTC.
Position N 34°38' E 135°25'.

Length 146 m; draft 5.6 m.

Type: Passenger vessel. MMSI: 431300775.

Date/timePositionNaut miles runAvg speedWind from/ knotsBaromVisibWave heightAir tempDewpointWater temp
2017-Nov-20 00:23N 34°38' E 135°25'0 0.0
2017-Nov-19 23:59N 34°38' E 135°25'0 0.0
2017-Nov-19 23:23N 34°38' E 135°25'0 0.1
2017-Nov-19 22:53N 34°38' E 135°25'0 0.1
2017-Nov-19 22:29N 34°38' E 135°25'0 0.0
2017-Nov-19 21:59N 34°38' E 135°25'0 0.0
2017-Nov-19 21:30N 34°38' E 135°25'2 3.4
2017-Nov-19 21:00N 34°38' E 135°23'918.1
2017-Nov-19 20:30N 34°35' E 135°12'918.1
2017-Nov-19 20:00N 34°37' E 135°01'7 0.2
2017-Nov-18 12:18N 34°35' E 134°53'722.0
2017-Nov-18 12:00N 34°38' E 135°00'1020.3
2017-Nov-18 11:30N 34°36' E 135°12'1019.2
2017-Nov-18 11:01N 34°38' E 135°24'1 1.5
2017-Nov-18 10:25N 34°38' E 135°25'0 0.0
2017-Nov-18 09:55N 34°38' E 135°25'0 0.0
2017-Nov-18 09:19N 34°38' E 135°25'0 0.0
2017-Nov-18 08:43N 34°38' E 135°25'0 0.1
2017-Nov-18 08:07N 34°38' E 135°25'0 0.0
2017-Nov-18 07:49N 34°38' E 135°25'0 0.1
2017-Nov-18 07:25N 34°38' E 135°25'0 0.0
2017-Nov-18 06:55N 34°38' E 135°25'0 0.1
2017-Nov-18 06:25N 34°38' E 135°25'0 0.0
2017-Nov-18 05:55N 34°38' E 135°25'0 0.0
2017-Nov-18 05:25N 34°38' E 135°25'0 0.1
2017-Nov-18 04:55N 34°38' E 135°25'0 0.0
2017-Nov-18 04:25N 34°38' E 135°25'0 0.0
2017-Nov-18 03:55N 34°38' E 135°25'0 0.0
2017-Nov-18 03:25N 34°38' E 135°25'0 0.0
2017-Nov-18 02:50N 34°38' E 135°25'0 0.0
2017-Nov-18 02:25N 34°38' E 135°25'0 0.0
2017-Nov-18 01:55N 34°38' E 135°25'0 0.0
2017-Nov-18 01:19N 34°38' E 135°25'0 0.0
2017-Nov-18 00:55N 34°38' E 135°25'0 0.0
2017-Nov-18 00:26N 34°38' E 135°25'0 0.0
2017-Nov-17 23:37N 34°38' E 135°25'0 0.0
2017-Nov-17 23:13N 34°38' E 135°25'0 0.0
2017-Nov-17 22:56N 34°38' E 135°25'0 0.0
2017-Nov-17 22:26N 34°38' E 135°25'3 8.1
2017-Nov-17 22:00N 34°36' E 135°21'917.2
2017-Nov-17 21:30N 34°35' E 135°11'817.3
2017-Nov-17 21:00N 34°37' E 135°01'10 0.3
2017-Nov-16 11:37N 34°35' E 134°49'221.4
2017-Nov-16 11:30N 34°35' E 134°52'1020.2
2017-Nov-16 11:00N 34°36' E 135°04'1020.3
2017-Nov-16 10:30N 34°37' E 135°17'713.6
2017-Nov-16 10:00N 34°38' E 135°25'0 0.1
2017-Nov-16 09:28N 34°38' E 135°25'0 0.0
2017-Nov-16 08:52N 34°38' E 135°25'0 0.0
2017-Nov-16 08:22N 34°38' E 135°25'0 0.0
2017-Nov-16 07:58N 34°38' E 135°25'0 0.0
2017-Nov-16 07:28N 34°38' E 135°25'0 0.1
2017-Nov-16 06:46N 34°38' E 135°25'0 0.1
2017-Nov-16 06:22N 34°38' E 135°25'0 0.1
2017-Nov-16 05:58N 34°38' E 135°25'0 0.1
2017-Nov-16 05:22N 34°38' E 135°25'0 0.1
2017-Nov-16 04:58N 34°38' E 135°25'0 0.0
2017-Nov-16 04:28N 34°38' E 135°25'0 0.0
2017-Nov-16 03:58N 34°38' E 135°25'0 0.0
2017-Nov-16 03:28N 34°38' E 135°25'0 0.0
2017-Nov-16 02:40N 34°38' E 135°25'0 0.0
2017-Nov-16 02:04N 34°38' E 135°25'0 0.0
2017-Nov-16 01:52N 34°38' E 135°25'0 0.1
2017-Nov-16 01:28N 34°38' E 135°25'0 0.1
2017-Nov-16 00:58N 34°38' E 135°25'0 0.1
2017-Nov-16 00:28N 34°38' E 135°25'0 0.0
2017-Nov-15 23:58N 34°38' E 135°25'0 0.1
2017-Nov-15 23:22N 34°38' E 135°25'0 0.0
2017-Nov-15 22:58N 34°38' E 135°25'0 0.0
2017-Nov-15 22:28N 34°38' E 135°25'0 0.0
2017-Nov-15 21:58N 34°38' E 135°25'0 0.1
2017-Nov-15 21:28N 34°38' E 135°25'3 6.4
2017-Nov-15 21:00N 34°37' E 135°21'917.5
2017-Nov-15 20:30N 34°35' E 135°11'1018.7
2017-Nov-15 19:59N 34°37' E 134°60'7 0.2
2017-Nov-14 11:32N 34°35' E 134°52'120.8
2017-Nov-14 11:29N 34°36' E 134°53'919.5
2017-Nov-14 11:00N 34°36' E 135°04'1020.5
2017-Nov-14 10:30N 34°36' E 135°17'713.4
2017-Nov-14 10:00N 34°38' E 135°25'0 0.0
2017-Nov-14 09:29N 34°38' E 135°25'0 0.0
2017-Nov-14 08:47N 34°38' E 135°25'0 0.0
2017-Nov-14 08:29N 34°38' E 135°25'0 0.0
2017-Nov-14 07:59N 34°38' E 135°25'0 0.0
2017-Nov-14 07:29N 34°38' E 135°25'0 0.0
2017-Nov-14 06:59N 34°38' E 135°25'0 0.0
2017-Nov-14 06:29N 34°38' E 135°25'0 0.0
2017-Nov-14 05:59N 34°38' E 135°25'0 0.0
2017-Nov-14 05:29N 34°38' E 135°25'0 0.0
2017-Nov-14 04:59N 34°38' E 135°25'0 0.0
2017-Nov-14 04:29N 34°38' E 135°25'0 0.0
2017-Nov-14 03:59N 34°38' E 135°25'0 0.0
2017-Nov-14 03:23N 34°38' E 135°25'0 0.0
2017-Nov-14 02:59N 34°38' E 135°25'0 0.0
2017-Nov-14 02:29N 34°38' E 135°25'0 0.0
2017-Nov-14 01:59N 34°38' E 135°25'0 0.0
2017-Nov-14 01:29N 34°38' E 135°25'0 0.0
2017-Nov-14 00:59N 34°38' E 135°25'0 0.0
2017-Nov-14 00:29N 34°38' E 135°25'0 0.0
2017-Nov-13 23:59N 34°38' E 135°25'0 0.0
2017-Nov-13 23:29N 34°38' E 135°25'0 0.0
2017-Nov-13 22:59N 34°38' E 135°25'0 0.0
2017-Nov-13 22:29N 34°38' E 135°25'0 0.0
2017-Nov-13 21:47N 34°38' E 135°25'30 0.9
2017-Nov-12 11:42N 34°34' E 134°49'420.6
2017-Nov-12 11:29N 34°35' E 134°53'918.5
2017-Nov-12 11:01N 34°36' E 135°04'1020.6
2017-Nov-12 10:31N 34°37' E 135°17'713.3
2017-Nov-12 10:00N 34°38' E 135°25'0 0.0
2017-Nov-12 09:26N 34°38' E 135°25'0 0.0
2017-Nov-12 08:56N 34°38' E 135°25'0 0.0
2017-Nov-12 08:26N 34°38' E 135°25'0 0.0
2017-Nov-12 07:50N 34°38' E 135°25'0 0.0
2017-Nov-12 07:26N 34°38' E 135°25'0 0.0
2017-Nov-12 06:56N 34°38' E 135°25'0 0.0
2017-Nov-12 06:20N 34°38' E 135°25'0 0.0
2017-Nov-12 05:50N 34°38' E 135°25'0 0.0
2017-Nov-12 05:26N 34°38' E 135°25'0 0.0
2017-Nov-12 04:56N 34°38' E 135°25'0 0.0
2017-Nov-12 04:20N 34°38' E 135°25'0 0.0
2017-Nov-12 03:50N 34°38' E 135°25'0 0.0
2017-Nov-12 03:20N 34°38' E 135°25'0 0.0
2017-Nov-12 02:56N 34°38' E 135°25'0 0.0
2017-Nov-12 02:26N 34°38' E 135°25'0 0.0
2017-Nov-12 01:56N 34°38' E 135°25'0 0.0
2017-Nov-12 01:26N 34°38' E 135°25'0 0.0
2017-Nov-12 00:56N 34°38' E 135°25'0 0.0
2017-Nov-12 00:14N 34°38' E 135°25'0 0.0
2017-Nov-11 23:56N 34°38' E 135°25'0 0.0
2017-Nov-11 23:26N 34°38' E 135°25'0 0.0
2017-Nov-11 22:44N 34°38' E 135°25'0 0.0
2017-Nov-11 22:27N 34°38' E 135°25'4 9.0
2017-Nov-11 22:00N 34°36' E 135°20'1019.2
2017-Nov-11 21:30N 34°35' E 135°09'918.7
2017-Nov-11 21:00N 34°37' E 134°58'6 0.2
2017-Nov-10 12:33N 34°35' E 134°51'319.4
2017-Nov-10 12:22N 34°36' E 134°54'617.5
2017-Nov-10 12:01N 34°37' E 135°02'918.6
2017-Nov-10 11:31N 34°36' E 135°13'918.0
2017-Nov-10 11:00N 34°38' E 135°24'1 1.4
2017-Nov-10 10:30N 34°38' E 135°25'0 0.0
2017-Nov-10 10:00N 34°38' E 135°25'0 0.0
2017-Nov-10 09:30N 34°38' E 135°25'0 0.0
2017-Nov-10 09:00N 34°38' E 135°25'0 0.0
2017-Nov-10 08:30N 34°38' E 135°25'0 0.0
2017-Nov-10 08:00N 34°38' E 135°25'0 0.0
2017-Nov-10 07:30N 34°38' E 135°25'0 0.0
2017-Nov-10 07:00N 34°38' E 135°25'0 0.0
2017-Nov-10 06:30N 34°38' E 135°25'0 0.0
2017-Nov-10 05:54N 34°38' E 135°25'0 0.0
2017-Nov-10 05:24N 34°38' E 135°25'0 0.0
2017-Nov-10 04:48N 34°38' E 135°25'0 0.0
2017-Nov-10 04:30N 34°38' E 135°25'0 0.0
2017-Nov-10 04:00N 34°38' E 135°25'0 0.0
2017-Nov-10 03:30N 34°38' E 135°25'0 0.0
2017-Nov-10 03:00N 34°38' E 135°25'0 0.0
2017-Nov-10 02:30N 34°38' E 135°25'0 0.0
2017-Nov-10 02:00N 34°38' E 135°25'0 0.0
2017-Nov-10 01:24N 34°38' E 135°25'0 0.0
2017-Nov-10 01:00N 34°38' E 135°25'0 0.0
2017-Nov-10 00:30N 34°38' E 135°25'  

Dump ship's entire track history